Time;durP1;ratioP1;P1;durP2;ratioP2;P2;SDS_P1;SDS_P2;PMS_P1;PMS_P2;Temp;Humidity;BMP_temperature;BMP_pressure;BME280_temperature;BME280_humidity;BME280_pressure;Samples;Min_cycle;Max_cycle;Signal;HPM_P1;HPM_P2
2021/12/07 00:02:07;;;;;;;3.10;1.70;;;4.60;99.90;;;;;;5000778;28;20771;-80
2021/12/07 00:04:35;;;;;;;3.13;2.00;;;4.50;99.90;;;;;;5001548;28;20233;-79
2021/12/07 00:07:04;;;;;;;3.17;1.90;;;4.30;99.90;;;;;;5000475;28;20460;-81
2021/12/07 00:09:33;;;;;;;1.67;1.40;;;4.30;99.90;;;;;;4999369;28;20361;-81
2021/12/07 00:12:04;;;;;;;2.50;1.67;;;4.40;99.90;;;;;;5000984;28;20203;-82
2021/12/07 00:14:39;;;;;;;1.65;1.50;;;4.60;99.90;;;;;;4998428;28;20280;-83
2021/12/07 00:17:07;;;;;;;4.05;2.30;;;4.50;99.90;;;;;;5004945;28;21012;-81
2021/12/07 00:19:36;;;;;;;3.95;3.65;;;4.40;99.90;;;;;;5001370;28;20233;-82
2021/12/07 00:22:07;;;;;;;1.85;1.70;;;4.50;99.90;;;;;;5008829;28;20210;-83
2021/12/07 00:24:39;;;;;;;1.83;1.57;;;4.50;99.90;;;;;;5004002;28;20341;-84
2021/12/07 00:27:07;;;;;;;2.10;1.83;;;4.60;99.90;;;;;;5007647;28;20465;-83
2021/12/07 00:29:39;;;;;;;1.80;1.70;;;4.50;99.90;;;;;;5010772;28;20232;-84
2021/12/07 00:32:20;;;;;;;2.78;2.35;;;4.30;99.90;;;;;;5007333;28;20210;-83
2021/12/07 00:35:11;;;;;;;2.80;2.10;;;4.10;99.90;;;;;;4997061;28;20219;-80
2021/12/07 00:37:41;;;;;;;3.05;2.08;;;4.20;99.90;;;;;;5012578;28;20204;-81
2021/12/07 00:40:13;;;;;;;2.25;1.80;;;3.90;99.90;;;;;;5006956;28;20580;-81
2021/12/07 00:42:41;;;;;;;4.85;2.00;;;3.80;1.00;;;;;;4994333;28;20216;-83
2021/12/07 00:45:13;;;;;;;4.20;1.60;;;4.10;1.00;;;;;;5003917;28;20196;-80
2021/12/07 00:47:41;;;;;;;2.08;1.80;;;4.10;1.00;;;;;;5006947;28;20434;-82
2021/12/07 00:50:10;;;;;;;3.05;1.90;;;4.20;1.00;;;;;;5007642;28;20223;-80
2021/12/07 00:52:40;;;;;;;2.92;1.90;;;3.80;99.90;;;;;;5008247;28;20206;-82
2021/12/07 00:55:11;;;;;;;2.15;1.85;;;4.20;99.90;;;;;;5005991;28;20656;-81
2021/12/07 00:57:40;;;;;;;4.32;2.17;;;4.30;99.90;;;;;;5003071;28;20242;-81
2021/12/07 01:00:14;;;;;;;1.98;1.55;;;4.50;63.40;;;;;;5005409;28;20225;-79
2021/12/07 01:02:42;;;;;;;4.30;2.25;;;4.40;50.30;;;;;;5003955;28;20209;-80
2021/12/07 01:05:16;;;;;;;4.10;1.55;;;4.30;99.90;;;;;;5012777;28;20195;-83
2021/12/07 01:08:14;;;;;;;2.15;1.67;;;4.30;99.90;;;;;;5018758;28;20548;-83
2021/12/07 01:24:43;;;;;;;2.17;1.48;;;4.10;1.00;;;;;;5010474;28;20264;-83
2021/12/07 01:27:14;;;;;;;1.25;1.15;;;4.00;1.00;;;;;;5013887;28;20261;-82
2021/12/07 01:29:44;;;;;;;2.15;1.55;;;3.90;99.90;;;;;;5022644;28;20298;-82
2021/12/07 01:32:29;;;;;;;2.85;1.40;;;3.70;1.00;;;;;;5007911;28;20214;-83
2021/12/07 01:38:00;;;;;;;2.05;1.50;;;3.50;99.90;;;;;;5007641;28;20202;-81
2021/12/07 01:40:43;;;;;;;4.53;2.00;;;3.50;1.00;;;;;;5015225;28;20237;-81
2021/12/07 01:43:38;;;;;;;2.42;1.40;;;3.60;96.20;;;;;;5018189;28;20294;-83
2021/12/07 01:52:12;;;;;;;2.60;1.70;;;3.90;99.90;;;;;;4998964;28;20212;-82
2021/12/07 02:00:15;;;;;;;2.05;1.20;;;3.80;99.90;;;;;;4995151;28;20223;-81
2021/12/07 02:02:43;;;;;;;1.60;1.50;;;3.70;1.00;;;;;;5005216;28;20215;-80
2021/12/07 02:05:14;;;;;;;3.95;1.50;;;3.90;1.00;;;;;;5007048;28;20236;-83
2021/12/07 02:07:42;;;;;;;2.35;1.70;;;4.00;99.90;;;;;;5004210;28;20210;-82
2021/12/07 02:10:15;;;;;;;3.28;1.45;;;3.90;1.00;;;;;;5009643;28;20233;-84
2021/12/07 02:12:46;;;;;;;1.30;1.10;;;4.10;99.90;;;;;;5002537;28;20212;-83
2021/12/07 02:15:26;;;;;;;1.73;1.63;;;4.10;1.00;;;;;;4994309;28;20583;-83
2021/12/07 02:17:54;;;;;;;1.48;1.10;;;4.20;1.00;;;;;;5001543;28;20261;-82
2021/12/07 02:20:27;;;;;;;0.93;0.80;;;4.00;99.90;;;;;;4999830;28;20350;-82
2021/12/07 02:22:56;;;;;;;1.83;1.10;;;4.00;99.90;;;;;;5003613;28;20207;-80
2021/12/07 02:25:24;;;;;;;4.00;1.10;;;3.70;1.00;;;;;;5006740;28;20942;-83
2021/12/07 02:27:53;;;;;;;1.42;0.82;;;3.90;1.00;;;;;;5006564;28;20211;-84
2021/12/07 02:30:24;;;;;;;1.85;0.77;;;4.20;4.80;;;;;;5018397;28;20213;-84
2021/12/07 02:32:54;;;;;;;1.00;0.90;;;4.30;1.00;;;;;;5002326;28;20198;-84
2021/12/07 02:35:26;;;;;;;1.08;0.82;;;4.30;1.00;;;;;;5002925;28;20202;-84
2021/12/07 02:37:58;;;;;;;1.05;1.00;;;4.40;1.00;;;;;;5007682;28;20206;-84
2021/12/07 02:40:27;;;;;;;2.47;0.85;;;4.20;1.00;;;;;;5005086;28;20226;-81
2021/12/07 02:42:55;;;;;;;0.80;0.80;;;4.00;99.90;;;;;;5003735;28;20261;-81
2021/12/07 02:45:25;;;;;;;1.00;0.60;;;4.20;99.90;;;;;;4999003;28;20210;-79
2021/12/07 02:47:53;;;;;;;0.80;0.80;;;4.10;99.90;;;;;;5002234;28;20200;-81
2021/12/07 02:50:22;;;;;;;1.20;1.10;;;4.10;1.00;;;;;;5006297;28;20702;-82
2021/12/07 02:52:51;;;;;;;1.10;0.70;;;4.30;1.00;;;;;;5001613;28;20691;-80
2021/12/07 02:55:20;;;;;;;0.65;0.65;;;4.30;1.00;;;;;;4994802;28;20652;-82
2021/12/07 02:57:48;;;;;;;0.75;0.60;;;4.40;1.00;;;;;;5008049;28;20213;-82
2021/12/07 03:00:20;;;;;;;0.60;0.60;;;4.60;99.90;;;;;;5009371;28;20282;-80
2021/12/07 03:02:55;;;;;;;1.00;0.80;;;4.50;99.90;;;;;;5000880;28;20631;-81
2021/12/07 03:05:36;;;;;;;1.25;0.80;;;4.60;1.00;;;;;;5033022;28;20210;-81
2021/12/07 03:08:26;;;;;;;1.20;0.80;;;4.80;1.00;;;;;;5005812;28;20201;-81
2021/12/07 03:27:32;;;;;;;0.60;0.60;;;4.70;1.00;;;;;;5003690;28;20206;-82
2021/12/07 03:30:00;;;;;;;1.67;0.70;;;4.50;99.90;;;;;;5005068;28;20852;-82
2021/12/07 03:32:28;;;;;;;0.60;0.60;;;4.30;1.00;;;;;;5019074;28;20229;-82
2021/12/07 03:34:56;;;;;;;0.70;0.70;;;4.40;1.00;;;;;;5007484;28;20206;-81
2021/12/07 03:37:25;;;;;;;0.70;0.70;;;4.50;1.00;;;;;;5020229;28;20224;-81
2021/12/07 03:39:53;;;;;;;0.68;0.68;;;4.50;99.90;;;;;;5015284;28;20228;-80
2021/12/07 03:42:21;;;;;;;0.50;0.50;;;4.60;99.90;;;;;;5004645;28;20219;-83
2021/12/07 03:44:51;;;;;;;1.17;0.80;;;4.70;99.90;;;;;;5004856;28;20197;-81
2021/12/07 03:47:19;;;;;;;1.15;0.80;;;4.40;95.40;;;;;;5007502;28;20461;-81
2021/12/07 03:49:47;;;;;;;2.83;0.60;;;4.40;99.90;;;;;;5004774;28;20246;-81
2021/12/07 03:52:16;;;;;;;0.80;0.60;;;4.50;1.00;;;;;;5024609;28;20212;-82
2021/12/07 03:54:44;;;;;;;0.70;0.60;;;4.40;94.40;;;;;;5007800;28;20198;-81
2021/12/07 03:57:12;;;;;;;0.80;0.80;;;4.70;99.90;;;;;;5002503;28;20198;-83
2021/12/07 03:59:41;;;;;;;0.60;0.53;;;4.70;36.30;;;;;;5005550;28;20244;-79
2021/12/07 04:02:10;;;;;;;2.55;0.80;;;4.60;99.90;;;;;;5004653;28;20520;-82
2021/12/07 04:04:39;;;;;;;0.90;0.70;;;4.50;1.00;;;;;;4995938;28;20731;-83
2021/12/07 04:07:07;;;;;;;0.60;0.60;;;4.60;99.90;;;;;;4995693;28;20511;-84
2021/12/07 04:09:35;;;;;;;1.37;0.80;;;4.60;1.00;;;;;;4998662;28;20229;-81
2021/12/07 04:12:04;;;;;;;0.70;0.70;;;5.00;1.00;;;;;;5011611;28;20671;-81
2021/12/07 04:14:32;;;;;;;0.80;0.80;;;4.50;99.90;;;;;;5000142;28;20198;-81
2021/12/07 04:17:01;;;;;;;1.10;0.98;;;4.50;99.90;;;;;;5003137;28;20213;-82
2021/12/07 04:19:30;;;;;;;2.50;1.02;;;4.60;93.80;;;;;;4997229;28;20231;-82
2021/12/07 04:21:59;;;;;;;0.70;0.63;;;4.50;99.90;;;;;;4996359;28;20224;-81
2021/12/07 04:24:27;;;;;;;1.77;0.90;;;4.40;1.00;;;;;;5002727;28;20671;-80
2021/12/07 04:26:56;;;;;;;0.80;0.80;;;4.40;1.00;;;;;;5001940;28;20471;-82
2021/12/07 04:29:24;;;;;;;0.85;0.85;;;4.60;99.90;;;;;;5001902;28;20237;-82
2021/12/07 04:31:52;;;;;;;1.20;0.50;;;4.60;1.00;;;;;;4998931;28;20195;-81
2021/12/07 04:34:20;;;;;;;0.60;0.60;;;4.60;1.00;;;;;;4999644;28;20582;-81
2021/12/07 04:36:50;;;;;;;1.13;0.77;;;4.60;99.90;;;;;;5000983;28;20209;-80
2021/12/07 04:39:19;;;;;;;0.80;0.60;;;4.40;99.90;;;;;;4999070;28;20226;-81
2021/12/07 04:41:49;;;;;;;0.65;0.65;;;4.40;1.00;;;;;;5000802;28;20284;-82
2021/12/07 04:44:17;;;;;;;2.25;0.90;;;4.60;1.00;;;;;;4991496;28;20195;-83
2021/12/07 04:46:53;;;;;;;1.88;0.60;;;4.90;99.90;;;;;;4999654;28;20214;-82
2021/12/07 04:49:47;;;;;;;0.83;0.80;;;4.90;1.00;;;;;;4995340;28;20787;-83
2021/12/07 04:57:48;;;;;;;0.70;0.70;;;5.10;1.00;;;;;;4997313;28;20584;-81
2021/12/07 05:00:20;;;;;;;0.70;0.70;;;5.20;99.90;;;;;;4998923;28;20229;-81
2021/12/07 05:02:53;;;;;;;0.77;0.75;;;5.40;99.90;;;;;;5002134;28;20956;-81
2021/12/07 05:05:25;;;;;;;0.80;0.60;;;5.40;99.90;;;;;;5002212;28;20284;-81
2021/12/07 05:07:58;;;;;;;1.40;1.02;;;5.70;88.90;;;;;;5004414;28;20534;-82
2021/12/07 05:10:31;;;;;;;0.77;0.70;;;5.70;59.70;;;;;;5003944;28;20234;-82
2021/12/07 05:13:24;;;;;;;2.25;0.80;;;5.80;1.00;;;;;;5003946;28;20457;-80
2021/12/07 05:16:08;;;;;;;1.30;0.70;;;5.90;1.00;;;;;;4995994;28;20203;-81
2021/12/07 05:18:55;;;;;;;1.00;0.80;;;5.90;1.00;;;;;;5008829;28;20460;-82
2021/12/07 05:24:15;;;;;;;0.60;0.60;;;5.80;1.00;;;;;;5012056;28;20468;-80
2021/12/07 05:38:03;;;;;;;0.60;0.60;;;5.90;1.00;;;;;;5002205;28;20466;-78
2021/12/07 05:40:34;;;;;;;0.50;0.50;;;5.80;1.00;;;;;;5003574;28;21105;-79
2021/12/07 05:43:04;;;;;;;1.30;0.83;;;5.90;1.00;;;;;;5005432;28;20481;-80
2021/12/07 05:45:35;;;;;;;0.70;0.70;;;6.30;1.00;;;;;;5003338;28;20468;-80
2021/12/07 05:48:06;;;;;;;1.77;0.60;;;6.00;1.00;;;;;;5005563;28;21034;-78
2021/12/07 05:50:36;;;;;;;1.90;0.57;;;6.10;1.00;;;;;;5008702;28;20485;-82
2021/12/07 05:53:05;;;;;;;1.47;0.63;;;6.00;1.00;;;;;;4999325;28;20991;-78
2021/12/07 05:55:36;;;;;;;0.60;0.60;;;6.00;1.00;;;;;;5002107;28;20462;-80
2021/12/07 05:58:07;;;;;;;1.53;0.87;;;5.90;1.00;;;;;;5003616;28;21049;-80
2021/12/07 06:00:39;;;;;;;0.60;0.60;;;6.20;1.00;;;;;;5003642;28;20485;-79
2021/12/07 06:03:09;;;;;;;0.67;0.60;;;5.80;1.00;;;;;;5000712;28;20226;-78
2021/12/07 06:05:42;;;;;;;1.07;0.60;;;5.70;1.00;;;;;;5001804;28;20457;-78
2021/12/07 06:08:10;;;;;;;2.17;0.87;;;5.90;1.00;;;;;;5005874;28;20461;-80
2021/12/07 06:10:40;;;;;;;0.70;0.70;;;5.70;1.00;;;;;;5002283;28;20500;-80
2021/12/07 06:13:08;;;;;;;0.73;0.73;;;5.70;1.00;;;;;;4998901;28;20884;-79
2021/12/07 06:15:38;;;;;;;0.70;0.70;;;5.60;1.00;;;;;;4996623;28;20457;-77
2021/12/07 06:18:07;;;;;;;1.00;0.70;;;5.50;1.00;;;;;;5003108;28;21137;-79
2021/12/07 06:20:35;;;;;;;0.70;0.70;;;5.60;1.00;;;;;;5002642;28;20488;-79
2021/12/07 06:23:13;;;;;;;0.75;0.75;;;5.10;17.70;;;;;;5002801;28;20824;-82
2021/12/07 06:25:43;;;;;;;1.30;0.53;;;5.20;52.10;;;;;;4998313;28;20218;-81
2021/12/07 06:28:13;;;;;;;0.60;0.60;;;5.40;1.00;;;;;;4999108;28;20464;-81
2021/12/07 06:30:43;;;;;;;1.38;1.10;;;5.50;20.30;;;;;;4999881;28;20225;-82
2021/12/07 06:33:11;;;;;;;2.35;1.00;;;5.30;55.70;;;;;;5003352;28;20207;-77
2021/12/07 06:35:40;;;;;;;1.20;0.77;;;5.20;84.50;;;;;;5012664;28;20881;-82
2021/12/07 06:38:08;;;;;;;1.43;0.70;;;5.40;31.20;;;;;;5004002;28;20651;-80
2021/12/07 06:40:37;;;;;;;1.08;0.70;;;5.40;1.00;;;;;;5006722;28;20487;-80
2021/12/07 06:43:06;;;;;;;0.97;0.90;;;5.60;1.00;;;;;;5010454;28;20222;-78
2021/12/07 06:45:34;;;;;;;4.03;0.87;;;5.50;1.00;;;;;;5001337;28;20466;-78
2021/12/07 06:48:03;;;;;;;1.37;0.80;;;5.60;1.00;;;;;;4999921;28;20548;-81
2021/12/07 06:50:31;;;;;;;0.77;0.70;;;5.60;1.00;;;;;;5005110;28;20485;-80
2021/12/07 06:52:59;;;;;;;2.47;0.93;;;6.00;1.00;;;;;;4994524;28;20909;-79
2021/12/07 06:55:28;;;;;;;2.03;0.70;;;5.60;1.00;;;;;;4996638;28;20237;-80
2021/12/07 06:57:56;;;;;;;1.80;0.98;;;5.60;1.00;;;;;;4999167;28;20454;-82
2021/12/07 07:00:26;;;;;;;3.03;0.97;;;5.70;1.00;;;;;;4994604;28;20225;-81
2021/12/07 07:02:54;;;;;;;3.10;0.97;;;5.80;1.00;;;;;;5004336;28;20488;-80
2021/12/07 07:05:23;;;;;;;0.70;0.70;;;5.70;1.00;;;;;;5014255;28;20449;-80
2021/12/07 07:07:52;;;;;;;1.90;0.80;;;5.70;1.00;;;;;;5009413;28;20461;-82
2021/12/07 07:10:21;;;;;;;1.80;0.80;;;5.70;1.00;;;;;;5001873;28;20905;-79
2021/12/07 07:12:50;;;;;;;1.33;0.80;;;5.80;1.00;;;;;;4995385;28;20465;-79
2021/12/07 07:15:19;;;;;;;5.20;1.70;;;5.60;1.00;;;;;;4991008;28;20461;-79
2021/12/07 07:17:48;;;;;;;0.73;0.70;;;5.50;1.00;;;;;;5006171;28;20456;-80
2021/12/07 07:20:18;;;;;;;0.70;0.70;;;5.70;1.00;;;;;;5006797;28;20454;-80
2021/12/07 07:22:46;;;;;;;0.70;0.70;;;5.50;1.00;;;;;;4995610;28;20477;-80
2021/12/07 07:25:15;;;;;;;2.17;0.82;;;5.60;1.00;;;;;;4999272;28;20544;-78
2021/12/07 07:27:44;;;;;;;2.70;0.70;;;5.70;1.00;;;;;;4999807;28;20215;-81
2021/12/07 07:30:14;;;;;;;1.63;0.80;;;5.90;1.00;;;;;;5003762;28;20481;-78
2021/12/07 07:32:43;;;;;;;1.27;0.70;;;5.90;1.00;;;;;;4999052;28;20429;-82
2021/12/07 07:35:14;;;;;;;1.30;0.70;;;5.90;1.00;;;;;;5006832;28;20998;-81
2021/12/07 07:37:42;;;;;;;0.90;0.90;;;5.90;1.00;;;;;;5004028;28;20450;-79
2021/12/07 07:40:15;;;;;;;1.05;0.60;;;5.80;1.00;;;;;;5006486;28;20875;-82
2021/12/07 07:42:44;;;;;;;0.70;0.68;;;5.90;1.00;;;;;;5003159;28;20233;-82
2021/12/07 07:45:13;;;;;;;1.00;0.90;;;6.10;1.00;;;;;;4994492;28;20206;-79
2021/12/07 07:47:42;;;;;;;1.23;0.90;;;6.10;1.00;;;;;;4999336;28;20673;-82
2021/12/07 07:50:13;;;;;;;3.23;1.20;;;6.20;1.00;;;;;;4999115;28;20872;-78
2021/12/07 07:52:42;;;;;;;4.38;1.25;;;6.30;1.00;;;;;;5000502;28;20927;-80
2021/12/07 07:55:11;;;;;;;0.70;0.70;;;6.20;1.00;;;;;;5000924;28;20202;-78
2021/12/07 07:57:39;;;;;;;0.90;0.80;;;6.20;1.00;;;;;;4996593;28;20449;-80
2021/12/07 08:00:16;;;;;;;1.83;0.70;;;6.20;1.00;;;;;;5000089;28;20485;-80
2021/12/07 08:02:45;;;;;;;3.80;0.87;;;6.00;1.00;;;;;;4995294;28;20505;-81
2021/12/07 08:05:16;;;;;;;2.33;0.70;;;6.00;1.00;;;;;;5014338;28;20979;-81
2021/12/07 08:07:47;;;;;;;2.50;1.10;;;6.00;1.00;;;;;;4999669;28;20457;-79
2021/12/07 08:10:18;;;;;;;1.13;0.70;;;6.30;1.00;;;;;;4996499;28;20477;-82
2021/12/07 08:12:46;;;;;;;1.10;0.70;;;6.10;99.90;;;;;;5003436;28;20553;-81
2021/12/07 08:15:15;;;;;;;2.17;0.80;;;6.10;99.90;;;;;;4990238;28;20820;-81
2021/12/07 08:17:44;;;;;;;3.23;1.30;;;6.10;99.90;;;;;;5000910;28;20811;-81
2021/12/07 08:20:12;;;;;;;2.60;1.00;;;6.00;99.90;;;;;;4996258;28;20563;-80
2021/12/07 08:22:42;;;;;;;5.77;1.20;;;6.00;99.90;;;;;;5005624;28;20991;-81
2021/12/07 08:25:10;;;;;;;1.73;1.03;;;6.00;99.90;;;;;;5000015;28;20453;-81
2021/12/07 08:27:39;;;;;;;1.40;1.03;;;6.00;99.90;;;;;;4999426;28;20465;-80
2021/12/07 08:30:11;;;;;;;1.10;0.83;;;6.00;99.90;;;;;;4998300;28;20678;-79
2021/12/07 08:32:44;;;;;;;0.80;0.80;;;5.90;99.90;;;;;;5005758;28;20455;-81
2021/12/07 08:35:14;;;;;;;2.57;0.80;;;5.80;1.00;;;;;;5000821;28;20465;-81
2021/12/07 08:37:46;;;;;;;1.10;1.00;;;5.90;99.90;;;;;;5000336;28;20465;-81
2021/12/07 08:40:17;;;;;;;3.80;0.63;;;6.00;99.90;;;;;;4998905;28;21130;-80
2021/12/07 08:42:46;;;;;;;5.30;1.00;;;6.10;99.90;;;;;;5001067;28;20477;-81
2021/12/07 08:45:15;;;;;;;0.70;0.70;;;6.10;99.90;;;;;;5001929;28;21399;-79
2021/12/07 08:47:43;;;;;;;1.57;0.97;;;6.20;99.90;;;;;;5007784;28;20460;-82
2021/12/07 08:50:15;;;;;;;0.73;0.73;;;6.20;99.90;;;;;;5007008;28;20469;-81
2021/12/07 08:52:45;;;;;;;1.20;1.10;;;6.40;99.90;;;;;;5000763;28;21070;-82
2021/12/07 09:00:48;;;;;;;1.53;1.10;;;6.70;99.90;;;;;;5003632;28;20474;-81
2021/12/07 09:03:16;;;;;;;1.43;0.90;;;6.80;99.90;;;;;;5007820;28;20595;-81
2021/12/07 09:05:45;;;;;;;2.10;0.87;;;6.90;99.90;;;;;;5012376;28;20480;-82
2021/12/07 09:08:14;;;;;;;1.87;0.93;;;7.00;99.90;;;;;;5001036;28;20460;-81
2021/12/07 09:10:43;;;;;;;1.23;0.70;;;6.90;99.90;;;;;;5006722;28;20491;-83
2021/12/07 09:13:11;;;;;;;3.40;1.33;;;7.00;99.90;;;;;;5002010;28;20965;-81
2021/12/07 09:15:40;;;;;;;4.90;0.87;;;7.00;99.90;;;;;;4999439;28;20489;-80
2021/12/07 09:18:08;;;;;;;0.60;0.60;;;7.00;99.90;;;;;;5013871;28;20457;-80
2021/12/07 09:20:37;;;;;;;3.67;0.90;;;7.00;99.90;;;;;;5009803;28;21047;-79
2021/12/07 09:23:05;;;;;;;2.43;1.00;;;7.00;99.90;;;;;;5007140;28;20494;-80
2021/12/07 09:25:35;;;;;;;1.00;0.90;;;6.80;99.90;;;;;;5000364;28;20477;-81
2021/12/07 09:28:04;;;;;;;1.63;0.87;;;6.80;99.90;;;;;;5004833;28;20459;-80
2021/12/07 09:30:33;;;;;;;1.13;0.90;;;6.90;99.90;;;;;;5012274;28;20589;-82
2021/12/07 09:33:01;;;;;;;0.97;0.80;;;6.90;99.90;;;;;;5003309;28;20463;-81
2021/12/07 09:35:30;;;;;;;0.80;0.67;;;6.90;99.90;;;;;;5002337;28;20451;-82
2021/12/07 09:37:58;;;;;;;1.33;0.67;;;6.80;99.90;;;;;;5002041;28;20463;-81
2021/12/07 09:40:28;;;;;;;1.10;1.00;;;6.70;99.90;;;;;;5008395;28;20474;-80
2021/12/07 09:42:59;;;;;;;1.17;0.90;;;6.90;99.90;;;;;;5003261;28;20476;-81
2021/12/07 09:45:30;;;;;;;2.10;0.60;;;7.00;99.90;;;;;;5000176;28;20463;-79
2021/12/07 09:48:00;;;;;;;1.40;0.93;;;7.00;99.90;;;;;;5003679;28;20524;-81
2021/12/07 09:50:30;;;;;;;1.40;0.90;;;7.20;99.90;;;;;;5000834;28;20564;-82
2021/12/07 09:52:58;;;;;;;2.10;0.70;;;7.40;99.90;;;;;;4998738;28;20458;-80
2021/12/07 09:55:28;;;;;;;0.93;0.60;;;7.50;99.90;;;;;;4995461;28;20469;-82
2021/12/07 09:57:58;;;;;;;1.20;1.10;;;7.70;99.90;;;;;;5004061;28;20534;-81
2021/12/07 10:00:28;;;;;;;2.37;0.70;;;7.70;99.90;;;;;;5000853;28;20487;-81
2021/12/07 10:02:56;;;;;;;1.07;0.80;;;7.60;99.90;;;;;;5003657;28;20531;-80
2021/12/07 10:05:29;;;;;;;1.90;0.70;;;7.60;99.90;;;;;;5000964;28;21075;-81
2021/12/07 10:07:58;;;;;;;6.20;0.90;;;7.50;99.90;;;;;;4999559;28;21034;-83
2021/12/07 10:10:31;;;;;;;2.63;0.87;;;7.50;99.90;;;;;;5000459;28;21022;-81
2021/12/07 10:13:01;;;;;;;2.27;0.93;;;7.60;99.90;;;;;;4997439;28;20466;-80
2021/12/07 10:15:30;;;;;;;1.20;1.10;;;7.80;99.90;;;;;;5005255;28;20808;-81
2021/12/07 10:18:05;;;;;;;2.10;0.70;;;7.80;99.90;;;;;;4996824;28;20469;-82
2021/12/07 10:20:43;;;;;;;1.37;0.60;;;7.70;99.90;;;;;;5002910;28;20492;-78
2021/12/07 10:23:39;;;;;;;0.83;0.83;;;7.90;99.90;;;;;;5004029;28;20458;-81
2021/12/07 10:26:10;;;;;;;2.38;1.00;;;7.90;99.90;;;;;;4974376;28;20521;-79
2021/12/07 10:28:42;;;;;;;3.23;1.07;;;7.90;99.90;;;;;;5001109;28;20262;-82
2021/12/07 10:31:31;;;;;;;1.23;0.73;;;8.00;99.90;;;;;;5000655;28;21243;-81
2021/12/07 10:34:02;;;;;;;4.10;0.80;;;8.10;99.90;;;;;;5002735;28;20993;-81
2021/12/07 10:36:33;;;;;;;0.90;0.67;;;8.10;99.90;;;;;;5002171;28;20453;-81
2021/12/07 10:39:08;;;;;;;7.97;2.07;;;8.20;99.90;;;;;;5002419;28;20462;-80
2021/12/07 10:41:40;;;;;;;1.50;1.03;;;8.30;99.90;;;;;;5000502;28;20483;-84
2021/12/07 10:44:12;;;;;;;1.23;0.90;;;8.10;99.90;;;;;;5004556;28;20479;-82
2021/12/07 10:46:52;;;;;;;0.93;0.83;;;8.10;99.90;;;;;;4998258;28;20466;-80
2021/12/07 10:49:39;;;;;;;4.80;1.23;;;8.30;99.90;;;;;;4998775;28;20963;-81
2021/12/07 10:52:21;;;;;;;1.37;0.80;;;8.30;99.90;;;;;;4994842;28;20209;-81
2021/12/07 10:54:55;;;;;;;1.80;0.70;;;8.40;99.90;;;;;;4999530;28;20466;-81
2021/12/07 10:57:26;;;;;;;3.20;0.70;;;8.50;99.90;;;;;;5004281;28;20459;-81
2021/12/07 11:00:20;;;;;;;1.67;0.70;;;8.50;99.90;;;;;;5003743;28;20482;-80
2021/12/07 11:02:51;;;;;;;4.40;0.90;;;8.60;99.90;;;;;;4997305;28;20967;-80
2021/12/07 11:05:23;;;;;;;1.13;0.80;;;8.20;99.90;;;;;;5000088;28;20526;-80
2021/12/07 11:07:52;;;;;;;4.57;1.00;;;8.10;99.90;;;;;;5004565;28;20450;-81
2021/12/07 11:10:28;;;;;;;6.13;4.87;;;8.10;99.90;;;;;;4998964;28;20479;-83
2021/12/07 11:13:01;;;;;;;0.80;0.60;;;8.20;99.90;;;;;;5000174;28;20451;-82
2021/12/07 11:15:32;;;;;;;2.87;0.80;;;8.30;99.90;;;;;;5003485;28;20448;-81
2021/12/07 11:18:04;;;;;;;2.67;0.70;;;8.50;99.90;;;;;;5022061;28;20636;-83
2021/12/07 11:20:33;;;;;;;1.30;0.60;;;8.60;99.90;;;;;;4992972;28;20481;-81
2021/12/07 11:23:09;;;;;;;1.73;0.80;;;8.70;99.90;;;;;;4998784;28;20456;-80
2021/12/07 11:31:23;;;;;;;1.63;1.07;;;9.00;99.90;;;;;;5012042;28;20850;-81
2021/12/07 11:33:56;;;;;;;1.00;0.70;;;9.00;99.90;;;;;;4998926;28;20461;-81
2021/12/07 11:36:27;;;;;;;0.80;0.73;;;8.90;99.90;;;;;;5003037;28;20453;-81
2021/12/07 11:38:58;;;;;;;1.33;0.80;;;8.80;99.90;;;;;;5001978;28;20461;-83
2021/12/07 11:41:32;;;;;;;1.55;0.80;;;8.40;99.90;;;;;;5006489;28;20989;-81
2021/12/07 11:44:07;;;;;;;0.83;0.70;;;8.00;99.90;;;;;;5000329;28;20525;-81
2021/12/07 11:46:39;;;;;;;0.80;0.80;;;7.90;99.90;;;;;;5006793;28;20449;-82
2021/12/07 11:49:16;;;;;;;2.90;1.03;;;7.80;99.90;;;;;;5002753;28;21054;-80
2021/12/07 11:51:46;;;;;;;2.00;0.77;;;7.80;99.90;;;;;;4998563;28;20456;-81
2021/12/07 11:54:17;;;;;;;3.10;1.30;;;7.70;99.90;;;;;;4993591;28;20457;-80
2021/12/07 11:56:51;;;;;;;3.23;0.70;;;7.90;99.90;;;;;;5003210;28;20511;-81
2021/12/07 11:59:20;;;;;;;0.70;0.70;;;8.10;99.90;;;;;;4999387;28;20466;-80
2021/12/07 12:01:50;;;;;;;1.17;0.70;;;8.20;99.90;;;;;;4991139;28;20695;-80
2021/12/07 12:04:20;;;;;;;3.53;0.90;;;8.40;99.90;;;;;;5006584;28;20457;-81
2021/12/07 12:06:50;;;;;;;2.70;0.80;;;8.50;99.90;;;;;;5001564;28;20543;-83
2021/12/07 12:09:19;;;;;;;1.00;0.80;;;8.40;99.90;;;;;;4998573;28;21093;-81
2021/12/07 12:11:55;;;;;;;1.53;0.57;;;8.40;99.90;;;;;;5001207;28;20462;-82
2021/12/07 12:14:38;;;;;;;1.10;0.80;;;8.50;99.90;;;;;;4998680;28;20493;-81
2021/12/07 12:17:13;;;;;;;1.27;0.50;;;8.60;99.90;;;;;;5000820;28;20632;-83
2021/12/07 12:19:55;;;;;;;3.63;1.73;;;8.80;99.90;;;;;;5011590;28;21098;-85
2021/12/07 12:22:31;;;;;;;3.03;1.03;;;8.90;99.90;;;;;;4995153;28;20465;-84
2021/12/07 12:25:05;;;;;;;0.87;0.83;;;9.00;99.90;;;;;;5005926;28;20490;-81
2021/12/07 12:27:36;;;;;;;1.73;0.60;;;9.20;99.90;;;;;;5005321;28;20480;-80
2021/12/07 12:30:17;;;;;;;1.27;0.60;;;9.20;99.90;;;;;;5005133;28;20484;-81
2021/12/07 12:32:56;;;;;;;2.45;0.80;;;9.20;99.90;;;;;;4993919;28;20547;-82
2021/12/07 12:35:31;;;;;;;1.47;0.60;;;9.00;99.90;;;;;;4999290;28;20209;-77
2021/12/07 12:38:00;;;;;;;0.77;0.60;;;8.50;99.90;;;;;;5005603;28;20950;-80
2021/12/07 12:40:31;;;;;;;3.00;1.00;;;8.40;99.90;;;;;;5003434;28;20670;-81
2021/12/07 12:43:02;;;;;;;0.80;0.60;;;8.30;99.90;;;;;;4997428;28;20458;-81
2021/12/07 12:45:35;;;;;;;2.80;0.90;;;7.90;99.90;;;;;;4994384;28;20488;-80
2021/12/07 12:48:06;;;;;;;3.60;0.90;;;7.80;99.90;;;;;;5005231;28;20462;-82
2021/12/07 12:50:37;;;;;;;0.90;0.80;;;7.90;99.90;;;;;;5002241;28;20808;-81
2021/12/07 12:53:08;;;;;;;0.90;0.60;;;8.00;99.90;;;;;;5005352;28;20503;-79
2021/12/07 12:55:41;;;;;;;6.20;1.27;;;7.90;99.90;;;;;;5020654;28;20463;-80
2021/12/07 12:58:16;;;;;;;1.17;0.60;;;8.00;99.90;;;;;;5036415;28;20462;-81
2021/12/07 13:01:05;;;;;;;1.43;0.83;;;7.60;99.90;;;;;;5000354;28;20509;-80
2021/12/07 13:03:46;;;;;;;1.67;0.70;;;7.50;99.90;;;;;;5007940;28;20866;-81
2021/12/07 13:06:17;;;;;;;1.47;0.80;;;7.50;99.90;;;;;;5000846;28;20538;-79
2021/12/07 13:08:55;;;;;;;3.03;1.00;;;7.40;99.90;;;;;;5007924;28;20496;-81
2021/12/07 13:11:34;;;;;;;0.67;0.67;;;7.40;99.90;;;;;;5010805;28;20471;-82
2021/12/07 13:14:04;;;;;;;1.40;0.93;;;7.40;99.90;;;;;;4998587;28;20461;-80
2021/12/07 13:16:33;;;;;;;0.90;0.70;;;7.50;99.90;;;;;;4998622;28;20464;-80
2021/12/07 13:19:07;;;;;;;0.60;0.60;;;7.40;99.90;;;;;;5005594;28;21151;-81
2021/12/07 13:21:39;;;;;;;1.80;1.07;;;7.30;99.90;;;;;;5005028;28;20515;-81
2021/12/07 13:24:10;;;;;;;2.60;0.77;;;7.30;99.90;;;;;;5005816;28;20445;-81
2021/12/07 13:26:40;;;;;;;4.23;0.90;;;7.40;99.90;;;;;;4999729;28;20929;-81
2021/12/07 13:29:13;;;;;;;1.80;0.60;;;7.40;99.90;;;;;;5001937;28;20480;-82
2021/12/07 13:31:43;;;;;;;3.57;0.70;;;7.50;99.90;;;;;;4996179;28;20450;-81
2021/12/07 13:34:26;;;;;;;0.60;0.50;;;7.40;99.90;;;;;;5002823;28;20446;-82
2021/12/07 13:36:58;;;;;;;0.80;0.80;;;7.50;99.90;;;;;;5001580;28;20447;-81
2021/12/07 13:39:39;;;;;;;1.97;0.80;;;7.70;99.90;;;;;;5001701;28;20478;-82
2021/12/07 13:42:11;;;;;;;3.53;1.20;;;7.90;99.90;;;;;;5002982;28;21063;-82
2021/12/07 13:44:41;;;;;;;2.33;1.07;;;7.90;99.90;;;;;;5007882;28;20447;-81
2021/12/07 13:47:13;;;;;;;2.97;0.70;;;8.00;99.90;;;;;;4999293;28;20494;-83
2021/12/07 13:49:46;;;;;;;0.87;0.70;;;7.90;99.90;;;;;;5001045;28;20511;-82
2021/12/07 13:52:17;;;;;;;0.93;0.60;;;7.70;99.90;;;;;;4999274;28;20452;-81
2021/12/07 13:54:47;;;;;;;3.40;0.67;;;7.60;99.90;;;;;;5003592;28;20750;-81
2021/12/07 13:57:19;;;;;;;1.60;0.60;;;7.50;99.90;;;;;;5001438;28;21017;-81
2021/12/07 14:00:08;;;;;;;1.00;0.90;;;7.70;99.90;;;;;;4997641;28;20560;-82
2021/12/07 14:02:41;;;;;;;0.70;0.60;;;8.00;99.90;;;;;;5002269;28;20458;-81
2021/12/07 14:05:14;;;;;;;1.00;0.80;;;8.00;99.90;;;;;;5001039;28;20470;-82
2021/12/07 14:07:44;;;;;;;2.20;0.70;;;8.10;99.90;;;;;;5003895;28;20447;-82
2021/12/07 14:10:17;;;;;;;0.77;0.60;;;8.00;99.90;;;;;;4989724;28;20607;-80
2021/12/07 14:12:47;;;;;;;2.60;0.60;;;8.00;99.90;;;;;;5002153;28;20968;-82
2021/12/07 14:15:19;;;;;;;1.40;0.60;;;8.00;99.90;;;;;;5000784;28;20468;-81
2021/12/07 14:17:52;;;;;;;1.90;0.60;;;8.10;99.90;;;;;;4997619;28;20882;-83
2021/12/07 14:20:31;;;;;;;1.23;0.90;;;8.20;99.90;;;;;;4999142;28;20547;-81
2021/12/07 14:23:02;;;;;;;1.27;0.67;;;8.50;99.90;;;;;;5000813;28;20454;-82
2021/12/07 14:25:30;;;;;;;2.00;0.70;;;8.50;99.90;;;;;;4999170;28;20467;-81
2021/12/07 14:27:58;;;;;;;0.80;0.60;;;8.70;99.90;;;;;;5002416;28;20479;-80
2021/12/07 14:30:29;;;;;;;1.00;0.60;;;8.70;99.90;;;;;;4998384;28;20480;-81
2021/12/07 14:32:58;;;;;;;6.47;0.70;;;8.40;99.90;;;;;;5001048;28;20612;-81
2021/12/07 14:35:26;;;;;;;1.60;0.80;;;8.20;99.90;;;;;;4998093;28;20493;-79
2021/12/07 14:37:56;;;;;;;1.53;0.60;;;8.20;99.90;;;;;;5003559;28;20458;-82
2021/12/07 14:40:24;;;;;;;1.43;0.70;;;8.40;99.90;;;;;;4997588;28;20484;-83